Latest Weather Observations for Mount Buller

IDV60801

Issued at 5:52 pm EST Wednesday 26 June 2019 (issued every 10 minutes, with the page automatically refreshed every 10 minutes)

About weather observations | Map of weather stations | Latest weather observations for VIC | Other Formats
Station Details ID: 083024 Name: MOUNT BULLER Lat: -37.15 Lon: 146.44 Height: 1707.0 m
Data from the previous 72 hours. | See also: Recent months at Mount Buller
Date/Time
EST
Temp
°C
App
Temp
°C
Dew
Point
°C
Rel
Hum
%
Delta-T
°C
Wind Press
QNH
hPa
Press
MSL
hPa
Rain since
9am
mm
Dir  Spd
km/h
Gust
km/h
Spd
kts
Gust
kts
26/05:30pm 2.7 -2.3 -4.7 58 2.9 NE 13 15 7 8 - - 0.0
26/05:00pm 2.7 -2.4 -5.2 56 3.0 NE 13 15 7 8 - - 0.0
26/04:30pm 3.9 -0.5 -2.3 64 2.5 NE 11 15 6 8 - - 0.0
26/04:00pm 3.7 -0.3 0.2 78 1.5 NNE 11 13 6 7 - - 0.0
26/03:30pm 4.2 -0.3 -0.6 71 2.0 NNE 13 17 7 9 - - 0.0
26/03:00pm 4.9 0.2 -1.5 63 2.6 NNE 13 19 7 10 - - 0.0
26/02:30pm 5.0 0.5 -3.0 56 3.2 NNE 11 15 6 8 - - 0.0
26/02:00pm 5.7 1.1 -0.8 63 2.7 NE 13 17 7 9 - - 0.0
26/01:30pm 6.0 1.8 -0.9 61 2.9 NE 11 15 6 8 - - 0.0
26/01:00pm 5.7 1.7 -2.4 56 3.3 NNE 9 13 5 7 - - 0.0
26/12:30pm 5.7 2.0 -2.9 54 3.4 NE 7 15 4 8 - - 0.0
26/12:00pm 6.0 2.5 -2.6 54 3.5 ENE 6 13 3 7 - - 0.0
26/11:30am 5.0 0.6 -13.9 24 6.0 SSE 6 7 3 4 - - 0.0
26/11:00am 5.7 2.0 -14.3 22 6.4 SSE 2 6 1 3 - - 0.0
26/10:30am 6.7 3.5 -7.3 36 5.1 SE 2 2 1 1 - - 0.0
26/10:00am 4.8 1.5 -14.5 23 6.0 CALM 0 2 0 1 - - 0.0
26/09:30am 4.1 0.1 -12.7 28 5.4 WSW 4 6 2 3 - - 0.0
26/09:00am 3.2 -1.2 -10.8 35 4.7 SW 7 9 4 5 - - 0.0
26/08:30am 3.2 -1.3 -11.5 33 4.8 WSW 7 9 4 5 - - 0.0
26/08:00am 3.0 -1.6 -13.7 28 5.1 SW 7 9 4 5 - - 0.0
26/07:30am 2.7 -1.7 -12.7 31 4.8 SW 6 7 3 4 - - 0.0
26/07:00am 3.0 -1.4 -12.4 31 4.9 W 6 7 3 4 - - 0.0
26/06:30am 1.9 -3.0 -11.9 35 4.3 WNW 9 9 5 5 - - 0.0
26/06:00am 2.1 -2.5 -13.2 31 4.7 WNW 7 7 4 4 - - 0.0
26/05:30am 2.2 -1.6 -10.0 40 4.1 WNW 4 6 2 3 - - 0.0
26/05:00am 2.0 -1.9 -11.8 35 4.3 WNW 4 4 2 2 - - 0.0
26/04:30am 1.9 -2.4 -11.6 36 4.3 NW 6 7 3 4 - - 0.0
26/04:00am 1.9 -2.3 -10.2 40 4.0 NW 6 7 3 4 - - 0.0
26/03:30am 2.0 -2.9 -11.8 35 4.3 NW 9 11 5 6 - - 0.0
26/03:00am 1.7 -3.0 -9.8 42 3.8 NW 9 11 5 6 - - 0.0
26/02:30am 1.5 -3.2 -9.1 45 3.5 NW 9 11 5 6 - - 0.0
26/02:00am 1.9 -2.7 -7.9 48 3.4 NNW 9 11 5 6 - - 0.0
26/01:30am 2.0 -2.5 -7.1 51 3.3 N 9 13 5 7 - - 0.0
26/01:00am 2.1 -3.1 -6.7 52 3.2 N 13 20 7 11 - - 0.0
26/12:30am 2.2 -3.4 -6.1 54 3.1 N 15 20 8 11 - - 0.0
26/12:00am 2.2 -3.5 -3.5 66 2.2 NNE 17 20 9 11 - - 0.0
 
Date/Time
EST
Temp
°C
App
Temp
°C
Dew
Point
°C
Rel
Hum
%
Delta-T
°C
Wind Press
QNH
hPa
Press
MSL
hPa
Rain since
9am
mm
Dir  Spd
km/h
Gust
km/h
Spd
kts
Gust
kts
25/11:30pm 2.3 -3.5 -4.6 60 2.7 NNE 17 20 9 11 - - 0.0
25/11:00pm 2.7 -3.6 -5.9 53 3.2 NNE 19 20 10 11 - - 0.0
25/10:30pm 2.7 -3.7 -6.9 49 3.5 NNE 19 20 10 11 - - 0.0
25/10:00pm 2.7 -3.3 -6.9 49 3.5 NNE 17 19 9 10 - - 0.0
25/09:30pm 3.0 -3.0 -6.4 50 3.5 NNE 17 19 9 10 - - 0.0
25/09:00pm 2.3 -2.8 -5.6 56 3.0 NNE 13 15 7 8 - - 0.0
25/08:30pm 2.1 -2.6 -5.1 59 2.7 NNE 11 15 6 8 - - 0.0
25/08:00pm 2.1 -2.0 -3.0 69 2.0 E 9 13 5 7 - - 0.0
25/07:30pm 1.4 -2.6 -2.5 75 1.6 ESE 9 11 5 6 - - 0.0
25/07:00pm 1.7 -2.7 -2.6 73 1.7 ESE 11 13 6 7 - - 0.0
25/06:30pm 1.3 -2.9 -0.8 86 0.8 ESE 11 15 6 8 - - 0.0
25/06:00pm 1.5 -2.3 -0.7 85 0.9 ESE 9 11 5 6 - - 0.0
25/05:30pm 1.6 -2.2 -0.8 84 1.0 ESE 9 13 5 7 - - 0.0
25/05:00pm 1.8 -2.0 -1.1 81 1.2 ESE 9 13 5 7 - - 0.0
25/04:30pm 3.1 0.6 -0.7 76 1.6 E 2 6 1 3 - - 0.0
25/04:00pm 3.7 1.2 -0.9 72 1.9 ENE 2 6 1 3 - - 0.0
25/03:30pm 4.0 1.1 -1.0 70 2.1 NE 4 7 2 4 - - 0.0
25/03:00pm 4.1 0.8 -1.3 68 2.2 NNE 6 7 3 4 - - 0.0
25/02:30pm 4.1 0.8 -1.1 69 2.1 N 6 9 3 5 - - 0.0
25/02:00pm 4.2 0.9 -1.6 66 2.4 NE 6 13 3 7 - - 0.0
25/01:30pm 4.0 0.5 -1.0 70 2.1 NNE 7 11 4 6 - - 0.0
25/01:00pm 4.4 1.0 -0.4 71 2.0 NNE 7 13 4 7 - - 0.0
25/12:30pm 4.2 0.4 -0.6 71 2.0 NNE 9 13 5 7 - - 0.0
25/12:00pm 4.6 0.8 -1.0 67 2.3 NNE 9 15 5 8 - - 0.0
25/11:30am 4.2 -0.1 -1.4 67 2.3 N 11 15 6 8 - - 0.0
25/11:00am 4.2 0.3 -1.8 65 2.4 N 9 17 5 9 - - 0.0
25/10:30am 3.6 -0.7 -1.5 69 2.1 NNE 11 15 6 8 - - 0.0
25/10:00am 3.2 -1.3 -2.9 64 2.4 N 11 15 6 8 - - 0.0
25/09:30am 2.9 -1.1 -2.6 67 2.2 N 9 13 5 7 - - 0.0
25/09:00am 2.3 -1.8 -3.0 68 2.0 N 9 13 5 7 - - 0.0
25/08:30am 1.2 -3.3 -3.5 71 1.8 N 11 15 6 8 - - 0.0
25/08:00am 0.9 -4.9 -4.7 66 2.1 N 17 22 9 12 - - 0.0
25/07:30am 0.5 -4.7 -5.7 63 2.2 NNW 13 19 7 10 - - 0.0
25/07:00am 0.6 -4.9 -5.6 63 2.2 N 15 17 8 9 - - 0.0
25/06:30am 1.3 -4.2 -5.4 61 2.5 NNE 15 20 8 11 - - 0.0
25/06:00am 0.7 -4.9 -6.2 60 2.4 NNW 15 20 8 11 - - 0.0
25/05:30am 0.6 -5.7 -6.3 60 2.4 NNW 19 20 10 11 - - 0.0
25/05:00am 0.8 -5.6 -6.7 57 2.6 NNW 19 22 10 12 - - 0.0
25/04:30am 1.0 -5.2 -3.1 74 1.6 NNW 20 24 11 13 - - 0.0
25/04:00am 1.0 -6.2 -10.1 43 3.6 NNW 22 26 12 14 - - 0.0
25/03:30am 0.5 -7.3 -13.2 35 4.0 NNW 24 32 13 17 - - 0.0
25/03:00am 1.1 -7.1 -13.3 33 4.3 NNW 26 33 14 18 - - 0.0
25/02:30am 1.2 -5.9 -16.6 25 4.8 N 19 24 10 13 - - 0.0
25/02:00am 2.3 -4.4 -16.7 23 5.3 N 17 20 9 11 - - 0.0
25/01:30am 1.8 -5.5 -17.1 23 5.2 N 20 26 11 14 - - 0.0
25/01:00am 1.8 -5.8 -16.1 25 5.0 NNE 22 28 12 15 - - 0.0
25/12:30am 1.8 -5.4 -16.6 24 5.1 N 20 24 11 13 - - 0.0
25/12:00am 0.8 -5.9 -16.5 26 4.7 N 17 22 9 12 - - 0.0
 
Date/Time
EST
Temp
°C
App
Temp
°C
Dew
Point
°C
Rel
Hum
%
Delta-T
°C
Wind Press
QNH
hPa
Press
MSL
hPa
Rain since
9am
mm
Dir  Spd
km/h
Gust
km/h
Spd
kts
Gust
kts
24/11:30pm 1.0 -6.0 -15.4 28 4.6 N 19 24 10 13 - - 0.0
24/11:00pm 1.6 -5.6 -15.3 27 4.8 N 20 26 11 14 - - 0.0
24/10:30pm 2.0 -6.0 -16.4 24 5.1 N 24 28 13 15 - - 0.0
24/10:00pm 2.1 -5.9 -16.3 24 5.2 NNE 24 28 13 15 - - 0.0
24/09:30pm 2.0 -6.0 -17.4 22 5.3 NNE 24 26 13 14 - - 0.0
24/09:00pm 1.6 -5.0 -15.3 27 4.8 NNE 17 20 9 11 - - 0.0
24/08:30pm 0.2 -4.7 -12.7 37 3.8 NE 9 11 5 6 - - 0.0
24/08:00pm 0.3 -4.2 -12.0 39 3.7 NE 7 7 4 4 - - 0.0
24/07:30pm 0.6 -3.8 -12.7 36 4.0 NE 6 6 3 3 - - 0.0
24/07:00pm 0.7 -3.7 -13.3 34 4.1 NNE 6 7 3 4 - - 0.0
24/06:30pm 1.9 -2.7 -13.4 31 4.6 NE 7 9 4 5 - - 0.0
24/06:00pm 1.6 -2.6 -9.6 43 3.7 E 6 9 3 5 - - 0.0
24/05:30pm 1.4 -2.2 -3.5 70 1.9 SE 6 9 3 5 - - 0.0
24/05:00pm 1.9 -2.0 -4.8 61 2.6 E 7 7 4 4 - - 0.0
24/04:30pm 3.1 0.0 -2.4 67 2.2 NNE 4 6 2 3 - - 0.0
24/04:00pm 3.9 1.1 -2.9 61 2.7 NNE 2 6 1 3 - - 0.0
24/03:30pm 3.8 0.2 -3.7 58 2.9 NNE 6 7 3 4 - - 0.0
24/03:00pm 4.2 0.1 -6.4 46 3.8 NE 7 11 4 6 - - 0.0
24/02:30pm 4.6 0.5 -6.6 44 4.0 NE 7 11 4 6 - - 0.0
24/02:00pm 5.0 0.4 -7.8 39 4.5 NE 9 15 5 8 - - 0.0
24/01:30pm 5.0 -0.1 -8.8 36 4.7 NE 11 15 6 8 - - 0.0
24/01:00pm 5.0 -0.2 -10.7 31 5.4 NE 11 17 6 9 - - 0.0
24/12:30pm 5.2 0.1 -9.0 35 4.9 NE 11 17 6 9 - - 0.0
24/12:00pm 5.1 0.4 -8.7 36 4.8 NE 9 17 5 9 - - 0.0
24/11:30am 4.8 0.5 -8.6 37 4.6 E 7 13 4 7 - - 0.0
24/11:00am 4.4 0.0 -10.4 33 5.1 E 7 11 4 6 - - 0.0
24/10:30am 2.9 -1.0 -10.7 36 4.5 SSE 4 6 2 3 - - 0.0
24/10:00am 2.8 -0.9 -9.1 41 4.1 S 4 4 2 2 - - 0.0
24/09:30am 1.1 -3.3 -10.4 42 3.7 SSW 7 7 4 4 - - 0.0
24/09:00am -1.2 -5.9 -9.1 55 2.4 SW 9 11 5 6 - - 6.2
24/08:30am -0.5 -4.5 -7.5 59 2.3 SW 6 9 3 5 - - 6.2
24/08:00am -1.6 -6.2 -8.5 59 2.1 SW 9 9 5 5 - - 6.2
24/07:30am -2.6 -7.2 -8.4 64 1.7 SW 9 11 5 6 - - 6.2
24/07:00am -1.5 -5.1 -7.2 65 1.8 SSW 4 6 2 3 - - 6.2
24/06:30am -2.2 -5.1 -7.7 66 1.7 CALM 0 0 0 0 - - 6.2
24/06:00am -1.8 -5.4 -7.3 66 1.7 SSE 4 6 2 3 - - 6.2
24/05:30am -2.0 -5.6 -7.1 68 1.6 SSW 4 6 2 3 - - 6.2
24/05:00am -2.1 -5.7 -7.6 66 1.7 S 4 6 2 3 - - 6.2
24/04:30am -1.7 -5.2 -10.5 51 2.6 E 2 4 1 2 - - 6.2
24/04:00am 0.4 -3.3 -13.6 34 4.0 NNE 2 2 1 1 - - 6.2
24/03:30am -0.1 -4.6 -14.0 34 3.9 NNE 6 7 3 4 - - 6.2
24/03:00am -0.4 -5.1 -14.3 34 3.9 NNW 7 11 4 6 - - 6.2
24/02:30am 0.0 -5.4 -14.7 32 4.1 N 11 13 6 7 - - 6.2
24/02:00am 0.6 -5.2 -14.5 31 4.3 NNE 13 15 7 8 - - 6.2
24/01:30am 0.2 -4.9 -14.5 32 4.1 NE 9 15 5 8 - - 6.2
24/01:00am 0.6 -4.4 -14.2 32 4.2 ENE 9 13 5 7 - - 6.2
24/12:30am -0.7 -5.2 -14.9 33 3.8 NNE 6 7 3 4 - - 6.2
24/12:00am -0.8 -5.5 -15.4 32 3.9 NNE 7 9 4 5 - - 6.2
 
Date/Time
EST
Temp
°C
App
Temp
°C
Dew
Point
°C
Rel
Hum
%
Delta-T
°C
Wind Press
QNH
hPa
Press
MSL
hPa
Rain since
9am
mm
Dir  Spd
km/h
Gust
km/h
Spd
kts
Gust
kts
23/11:30pm 0.3 -4.2 -15.2 30 4.3 NNE 6 9 3 5 - - 6.2
23/11:00pm -0.1 -5.1 -13.7 35 3.9 E 9 15 5 8 - - 6.2
23/10:30pm -1.0 -5.4 -13.2 39 3.4 E 6 9 3 5 - - 6.2
23/10:00pm 0.0 -4.4 -13.3 36 3.8 ENE 6 9 3 5 - - 6.2
23/09:30pm -0.5 -5.4 -11.5 43 3.3 E 9 15 5 8 - - 6.2
23/09:00pm -0.8 -5.2 -10.4 48 2.9 E 7 11 4 6 - - 6.2
23/08:30pm -0.7 -5.2 -11.1 45 3.1 E 7 11 4 6 - - 6.2
23/08:00pm -0.6 -6.5 -10.5 47 3.0 E 15 24 8 13 - - 6.2
23/07:30pm -1.8 -7.8 -7.1 67 1.7 ESE 17 24 9 13 - - 6.2
23/07:00pm -2.9 -7.3 -5.5 82 0.8 SE 9 15 5 8 - - 6.2
23/06:30pm -3.0 -7.0 -5.2 85 0.6 SE 7 11 4 6 - - 6.2
23/06:00pm -3.7 -7.7 -5.2 89 0.3 S 7 11 4 6 - - 6.2

Other formats

Comma delimited format used in spreadsheet applications
http://www.bom.gov.au/fwo/IDV60801/IDV60801.94894.axf

JavaScript Object Notation format (JSON) in row-major order
http://www.bom.gov.au/fwo/IDV60801/IDV60801.94894.json

Data quality

Most of these data are generated automatically and are frequently updated. Quality checks on data are not normally performed. It is possible for incorrect values to appear. Refer to information at About Latest Weather Observations and please check the disclaimer before using these data.